createdAt,value
2018-12-10T00:00:23.013Z,0.00
2018-12-10T00:01:23.148Z,0.00
2018-12-10T00:02:22.886Z,0.00
2018-12-10T00:03:22.841Z,0.00
2018-12-10T00:04:22.851Z,0.00
2018-12-10T00:05:22.782Z,0.00
2018-12-10T00:06:22.674Z,0.00
2018-12-10T00:07:22.658Z,0.00
2018-12-10T00:08:22.747Z,0.00
2018-12-10T00:09:22.552Z,0.00
2018-12-10T00:10:22.501Z,0.00
2018-12-10T00:11:22.463Z,0.00
2018-12-10T00:12:22.367Z,0.00
2018-12-10T00:13:22.452Z,0.00
2018-12-10T00:14:22.295Z,0.00
2018-12-10T00:15:22.234Z,0.00
2018-12-10T00:16:22.201Z,0.00
2018-12-10T00:17:22.130Z,0.00
2018-12-10T00:18:22.287Z,0.00
2018-12-10T00:19:22.033Z,0.00
2018-12-10T00:20:21.977Z,0.00
2018-12-10T00:21:21.921Z,0.00
2018-12-10T00:22:21.846Z,0.00
2018-12-10T00:23:21.952Z,0.00
2018-12-10T00:24:21.749Z,0.00
2018-12-10T00:25:21.714Z,0.00
2018-12-10T00:26:21.673Z,0.00
2018-12-10T00:27:21.607Z,0.00
2018-12-10T00:28:21.555Z,0.00
2018-12-10T00:29:21.513Z,0.00
2018-12-10T00:30:21.571Z,0.00
2018-12-10T00:31:21.394Z,0.00
2018-12-10T00:32:21.337Z,0.00
2018-12-10T00:33:21.322Z,0.00
2018-12-10T00:34:21.248Z,0.00
2018-12-10T00:35:21.398Z,0.00
2018-12-10T00:36:21.130Z,0.00
2018-12-10T00:37:21.078Z,0.00
2018-12-10T00:38:21.016Z,0.00
2018-12-10T00:39:20.982Z,0.00
2018-12-10T00:40:21.081Z,0.00
2018-12-10T00:41:20.890Z,0.00
2018-12-10T00:42:20.818Z,0.00
2018-12-10T00:43:20.759Z,0.00
2018-12-10T00:44:20.709Z,0.00
2018-12-10T00:45:20.765Z,0.00
2018-12-10T00:46:22.550Z,0.00
2018-12-10T00:47:20.523Z,0.00
2018-12-10T00:48:20.504Z,0.00
2018-12-10T00:49:20.446Z,0.00
2018-12-10T00:50:20.571Z,0.00
2018-12-10T00:51:20.355Z,0.00
2018-12-10T00:52:20.287Z,0.00
2018-12-10T00:53:20.261Z,0.00
2018-12-10T00:54:20.179Z,0.00
2018-12-10T00:55:20.275Z,0.00
2018-12-10T00:56:20.077Z,0.00
2018-12-10T00:57:20.058Z,0.00
2018-12-10T00:58:19.973Z,0.00
2018-12-10T00:59:19.929Z,0.00
2018-12-10T01:00:19.854Z,0.00
2018-12-10T01:01:19.919Z,0.00
2018-12-10T01:02:19.890Z,0.00
2018-12-10T01:03:19.720Z,0.00
2018-12-10T01:04:19.655Z,0.00
2018-12-10T01:05:19.644Z,0.00
2018-12-10T01:06:19.523Z,0.00
2018-12-10T01:07:19.675Z,0.00
2018-12-10T01:08:19.466Z,0.00
2018-12-10T01:09:19.396Z,0.00
2018-12-10T01:10:19.329Z,0.00
2018-12-10T01:11:19.295Z,0.00
2018-12-10T01:12:19.389Z,0.00
2018-12-10T01:13:19.324Z,0.00
2018-12-10T01:14:19.139Z,0.00
2018-12-10T01:15:19.101Z,0.00
2018-12-10T01:16:19.030Z,0.00
2018-12-10T01:17:19.036Z,0.00
2018-12-10T01:18:18.931Z,0.00
2018-12-10T01:19:18.997Z,0.00
2018-12-10T01:20:18.943Z,0.00
2018-12-10T01:21:18.779Z,0.00
2018-12-10T01:22:18.706Z,0.00
2018-12-10T01:23:18.651Z,0.00
2018-12-10T01:24:18.781Z,0.00
2018-12-10T01:25:18.550Z,0.00
2018-12-10T01:26:18.471Z,0.00
2018-12-10T01:27:18.457Z,0.00
2018-12-10T01:28:18.402Z,0.00
2018-12-10T01:29:18.460Z,0.00
2018-12-10T01:30:18.283Z,0.00
2018-12-10T01:31:18.387Z,0.00
2018-12-10T01:32:18.185Z,0.00
2018-12-10T01:33:18.132Z,0.00
2018-12-10T01:34:18.094Z,0.00
2018-12-10T01:35:18.033Z,0.00
2018-12-10T01:36:17.950Z,0.00
2018-12-10T01:37:17.930Z,0.00
2018-12-10T01:38:18.007Z,0.00
2018-12-10T01:39:17.826Z,0.00
2018-12-10T01:40:17.770Z,0.00
2018-12-10T01:41:17.721Z,0.00
2018-12-10T01:42:17.676Z,0.00
2018-12-10T01:43:17.805Z,0.00
2018-12-10T01:44:17.693Z,0.00
2018-12-10T01:45:17.471Z,0.00
2018-12-10T01:46:17.429Z,0.00
2018-12-10T01:47:17.397Z,0.00
2018-12-10T01:48:17.495Z,0.00
2018-12-10T01:49:17.325Z,0.00
2018-12-10T01:50:17.204Z,0.00
2018-12-10T01:51:17.179Z,0.00
2018-12-10T01:52:17.121Z,0.00
2018-12-10T01:53:17.212Z,0.00
2018-12-10T01:54:16.990Z,0.00
2018-12-10T01:55:16.991Z,0.00
2018-12-10T01:56:16.956Z,0.00
2018-12-10T01:57:16.832Z,0.00
2018-12-10T01:58:16.819Z,0.00
2018-12-10T01:59:16.774Z,0.00
2018-12-10T02:00:16.918Z,0.00
2018-12-10T02:01:16.682Z,0.00
2018-12-10T02:02:16.575Z,0.00
2018-12-10T02:03:16.537Z,0.00
2018-12-10T02:04:16.469Z,0.00
2018-12-10T02:05:16.620Z,0.00
2018-12-10T02:06:16.406Z,0.00
2018-12-10T02:07:16.332Z,0.00
2018-12-10T02:08:16.292Z,0.00
2018-12-10T02:09:16.261Z,0.00
2018-12-10T02:10:16.305Z,0.00
2018-12-10T02:11:16.095Z,0.00
2018-12-10T02:12:16.065Z,0.00
2018-12-10T02:13:15.987Z,0.00
2018-12-10T02:14:15.947Z,0.00
2018-12-10T02:15:15.929Z,0.00
2018-12-10T02:16:15.885Z,0.00
2018-12-10T02:17:15.835Z,0.00
2018-12-10T02:18:15.753Z,0.00
2018-12-10T02:19:15.816Z,0.00
2018-12-10T02:20:15.620Z,0.00
2018-12-10T02:21:15.586Z,0.00
2018-12-10T02:22:15.526Z,0.00
2018-12-10T02:23:15.530Z,0.00
2018-12-10T02:24:15.627Z,0.00
2018-12-10T02:25:15.429Z,0.00
2018-12-10T02:26:15.323Z,0.00
2018-12-10T02:27:15.278Z,0.00
2018-12-10T02:28:15.224Z,0.00
2018-12-10T02:29:15.187Z,0.00
2018-12-10T02:30:15.098Z,0.00
2018-12-10T02:31:15.219Z,0.00
2018-12-10T02:32:15.006Z,0.00
2018-12-10T02:33:14.925Z,0.00
2018-12-10T02:34:14.942Z,0.00
2018-12-10T02:35:14.861Z,0.00
2018-12-10T02:36:14.801Z,0.00
2018-12-10T02:37:14.746Z,0.00
2018-12-10T02:38:14.828Z,0.00
2018-12-10T02:39:14.640Z,0.00
2018-12-10T02:40:14.587Z,0.00
2018-12-10T02:41:14.561Z,0.00
2018-12-10T02:42:14.477Z,0.00
2018-12-10T02:43:14.662Z,0.00
2018-12-10T02:44:14.376Z,0.00
2018-12-10T02:45:14.297Z,0.00
2018-12-10T02:46:14.280Z,0.00
2018-12-10T02:47:14.209Z,0.00
2018-12-10T02:48:14.325Z,0.00
2018-12-10T02:49:14.110Z,0.00
2018-12-10T02:50:14.063Z,0.00
2018-12-10T02:51:14.003Z,0.00
2018-12-10T02:52:13.921Z,0.00
2018-12-10T02:53:14.119Z,0.00
2018-12-10T02:54:13.822Z,0.00
2018-12-10T02:55:13.803Z,0.00
2018-12-10T02:56:13.731Z,0.00
2018-12-10T02:57:13.682Z,0.00
2018-12-10T02:58:13.827Z,0.00
2018-12-10T02:59:13.590Z,0.00
2018-12-10T03:00:13.573Z,0.00
2018-12-10T03:01:13.506Z,0.00
2018-12-10T03:02:13.446Z,0.00
2018-12-10T03:03:13.537Z,0.00
2018-12-10T03:04:13.319Z,0.00
2018-12-10T03:05:13.230Z,0.00
2018-12-10T03:06:13.243Z,0.00
2018-12-10T03:07:13.170Z,0.00
2018-12-10T03:08:13.302Z,0.00
2018-12-10T03:09:13.047Z,0.00
2018-12-10T03:10:13.036Z,0.00
2018-12-10T03:11:13.142Z,0.00
2018-12-10T03:12:12.914Z,0.00
2018-12-10T03:13:12.840Z,0.00
2018-12-10T03:14:12.766Z,0.00
2018-12-10T03:15:12.716Z,0.00
2018-12-10T03:16:12.846Z,0.00
2018-12-10T03:17:12.607Z,0.00
2018-12-10T03:18:12.638Z,0.00
2018-12-10T03:19:12.546Z,0.00
2018-12-10T03:20:12.500Z,0.00
2018-12-10T03:21:12.408Z,0.00
2018-12-10T03:22:12.385Z,0.00
2018-12-10T03:23:12.456Z,0.00
2018-12-10T03:24:12.268Z,0.00
2018-12-10T03:25:12.172Z,0.00
2018-12-10T03:26:12.148Z,0.00
2018-12-10T03:27:12.092Z,0.00
2018-12-10T03:28:12.157Z,0.00
2018-12-10T03:29:11.998Z,0.00
2018-12-10T03:30:11.946Z,0.00
2018-12-10T03:31:11.882Z,0.00
2018-12-10T03:32:11.848Z,0.00
2018-12-10T03:33:11.958Z,0.00
2018-12-10T03:34:11.743Z,0.00
2018-12-10T03:35:11.700Z,0.00
2018-12-10T03:36:11.571Z,0.00
2018-12-10T03:37:11.584Z,0.00
2018-12-10T03:38:11.463Z,0.00
2018-12-10T03:39:11.448Z,0.00
2018-12-10T03:40:11.566Z,0.00
2018-12-10T03:41:11.361Z,0.00
2018-12-10T03:42:11.253Z,0.00
2018-12-10T03:43:11.201Z,0.00
2018-12-10T03:44:11.194Z,0.00
2018-12-10T03:45:11.258Z,0.00
2018-12-10T03:46:11.101Z,0.00
2018-12-10T03:47:11.043Z,0.00
2018-12-10T03:48:10.997Z,0.00
2018-12-10T03:49:10.929Z,0.00
2018-12-10T03:50:11.056Z,0.00
2018-12-10T03:51:10.835Z,0.00
2018-12-10T03:52:10.749Z,0.00
2018-12-10T03:53:10.752Z,0.00
2018-12-10T03:54:10.643Z,0.00
2018-12-10T03:55:10.761Z,0.00
2018-12-10T03:56:10.548Z,0.00
2018-12-10T03:57:10.497Z,0.00
2018-12-10T03:58:10.451Z,0.00
2018-12-10T03:59:10.397Z,0.00
2018-12-10T04:00:10.468Z,0.00
2018-12-10T04:01:10.268Z,0.00
2018-12-10T04:02:10.216Z,0.00
2018-12-10T04:03:10.196Z,0.00
2018-12-10T04:04:10.108Z,0.00
2018-12-10T04:05:10.276Z,0.00
2018-12-10T04:06:09.991Z,0.00
2018-12-10T04:07:09.950Z,0.00
2018-12-10T04:08:09.900Z,0.00
2018-12-10T04:09:09.837Z,0.00
2018-12-10T04:10:09.971Z,0.00
2018-12-10T04:11:09.820Z,0.00
2018-12-10T04:12:09.685Z,0.00
2018-12-10T04:13:09.655Z,0.00
2018-12-10T04:14:09.539Z,0.00
2018-12-10T04:15:09.673Z,0.00
2018-12-10T04:16:09.482Z,0.00
2018-12-10T04:17:09.413Z,0.00
2018-12-10T04:18:09.387Z,0.00
2018-12-10T04:19:09.365Z,0.00
2018-12-10T04:20:09.380Z,0.00
2018-12-10T04:21:09.242Z,0.00
2018-12-10T04:22:09.212Z,0.00
2018-12-10T04:23:09.124Z,0.00
2018-12-10T04:24:09.205Z,0.00
2018-12-10T04:25:09.220Z,0.00
2018-12-10T04:26:09.034Z,0.00
2018-12-10T04:27:09.019Z,0.00
2018-12-10T04:28:08.857Z,0.00
2018-12-10T04:29:08.820Z,0.00
2018-12-10T04:30:09.065Z,0.00
2018-12-10T04:31:08.769Z,0.00
2018-12-10T04:32:08.774Z,0.00
2018-12-10T04:33:08.695Z,0.00
2018-12-10T04:34:08.521Z,0.00
2018-12-10T04:35:08.716Z,0.00
2018-12-10T04:36:08.542Z,0.00
2018-12-10T04:37:08.457Z,0.00
2018-12-10T04:38:08.279Z,0.00
2018-12-10T04:39:08.218Z,0.00
2018-12-10T04:40:08.389Z,0.00
2018-12-10T04:41:08.177Z,0.00
2018-12-10T04:42:08.089Z,0.00
2018-12-10T04:43:08.089Z,0.00
2018-12-10T04:44:07.993Z,0.00
2018-12-10T04:45:07.934Z,0.00
2018-12-10T04:46:07.881Z,0.00
2018-12-10T04:47:07.816Z,0.00
2018-12-10T04:48:07.765Z,0.00
2018-12-10T04:49:07.878Z,0.00
2018-12-10T04:50:07.643Z,0.00
2018-12-10T04:51:07.599Z,0.00
2018-12-10T04:52:07.551Z,0.00
2018-12-10T04:53:07.502Z,0.00
2018-12-10T04:54:07.581Z,0.00
2018-12-10T04:55:07.370Z,0.00
2018-12-10T04:56:07.412Z,0.00
2018-12-10T04:57:07.336Z,0.00
2018-12-10T04:58:07.226Z,0.00
2018-12-10T04:59:07.233Z,0.00
2018-12-10T05:00:08.413Z,0.00
2018-12-10T05:01:07.200Z,0.00
2018-12-10T05:02:07.009Z,0.00
2018-12-10T05:03:06.954Z,0.00
2018-12-10T05:04:06.910Z,0.00
2018-12-10T05:05:06.867Z,0.00
2018-12-10T05:06:06.808Z,0.00
2018-12-10T05:07:06.719Z,0.00
2018-12-10T05:08:06.893Z,0.00
2018-12-10T05:09:06.703Z,0.00
2018-12-10T05:10:06.601Z,0.00
2018-12-10T05:11:06.546Z,0.00
2018-12-10T05:12:06.479Z,0.00
2018-12-10T05:13:06.461Z,0.00
2018-12-10T05:14:06.368Z,0.00
2018-12-10T05:15:06.499Z,0.00
2018-12-10T05:16:06.304Z,0.00
2018-12-10T05:17:06.266Z,0.00
2018-12-10T05:18:06.147Z,0.00
2018-12-10T05:19:06.142Z,0.00
2018-12-10T05:20:06.197Z,0.00
2018-12-10T05:21:06.039Z,0.00
2018-12-10T05:22:05.934Z,0.00
2018-12-10T05:23:05.925Z,0.00
2018-12-10T05:24:05.878Z,0.00
2018-12-10T05:25:05.909Z,0.00
2018-12-10T05:26:05.743Z,0.00
2018-12-10T05:27:05.661Z,0.00
2018-12-10T05:28:05.620Z,0.00
2018-12-10T05:29:05.599Z,0.00
2018-12-10T05:30:05.714Z,0.00
2018-12-10T05:31:05.462Z,0.00
2018-12-10T05:32:05.394Z,0.00
2018-12-10T05:33:05.343Z,0.00
2018-12-10T05:34:05.301Z,0.00
2018-12-10T05:35:05.409Z,0.00
2018-12-10T05:36:05.210Z,0.00
2018-12-10T05:37:05.161Z,0.00
2018-12-10T05:38:05.123Z,0.00
2018-12-10T05:39:05.039Z,0.00
2018-12-10T05:40:05.112Z,0.00
2018-12-10T05:41:04.937Z,0.00
2018-12-10T05:42:04.896Z,0.00
2018-12-10T05:43:04.846Z,0.00
2018-12-10T05:44:04.778Z,0.00
2018-12-10T05:45:04.916Z,0.00
2018-12-10T05:46:04.682Z,0.00
2018-12-10T05:47:04.665Z,0.00
2018-12-10T05:48:04.587Z,0.00
2018-12-10T05:49:04.476Z,0.00
2018-12-10T05:50:04.626Z,0.00
2018-12-10T05:51:04.413Z,0.00
2018-12-10T05:52:04.329Z,0.00
2018-12-10T05:53:04.300Z,0.00
2018-12-10T05:54:04.239Z,0.00
2018-12-10T05:55:04.316Z,0.00
2018-12-10T05:56:04.144Z,0.00
2018-12-10T05:57:04.073Z,0.00
2018-12-10T05:58:04.039Z,0.00
2018-12-10T05:59:03.961Z,0.00
2018-12-10T06:00:03.926Z,0.00
2018-12-10T06:01:03.846Z,0.00
2018-12-10T06:02:03.826Z,0.00
2018-12-10T06:03:03.747Z,0.00
2018-12-10T06:04:03.698Z,0.00
2018-12-10T06:05:03.825Z,0.00
2018-12-10T06:06:03.608Z,0.00
2018-12-10T06:07:03.575Z,0.00
2018-12-10T06:08:03.513Z,0.00
2018-12-10T06:09:03.439Z,0.00
2018-12-10T06:10:03.522Z,0.00
2018-12-10T06:11:03.346Z,0.00
2018-12-10T06:12:03.330Z,0.00
2018-12-10T06:13:03.282Z,0.00
2018-12-10T06:14:03.182Z,0.00
2018-12-10T06:15:03.356Z,0.00
2018-12-10T06:16:03.125Z,0.00
2018-12-10T06:17:03.026Z,0.00
2018-12-10T06:18:02.970Z,0.00
2018-12-10T06:19:02.883Z,0.00
2018-12-10T06:20:02.838Z,0.00
2018-12-10T06:21:02.781Z,0.00
2018-12-10T06:22:02.801Z,0.00
2018-12-10T06:23:02.701Z,0.00
2018-12-10T06:24:02.649Z,0.00
2018-12-10T06:25:02.620Z,0.00
2018-12-10T06:26:02.562Z,0.00
2018-12-10T06:27:02.486Z,0.00
2018-12-10T06:28:02.471Z,0.00
2018-12-10T06:29:02.363Z,0.00
2018-12-10T06:30:02.330Z,0.00
2018-12-10T06:31:02.375Z,0.00
2018-12-10T06:32:02.233Z,0.00
2018-12-10T06:33:02.203Z,0.00
2018-12-10T06:34:02.155Z,0.00
2018-12-10T06:35:02.032Z,0.00
2018-12-10T06:36:02.007Z,0.00
2018-12-10T06:37:01.951Z,0.00
2018-12-10T06:38:01.898Z,0.00
2018-12-10T06:39:01.841Z,0.00
2018-12-10T06:40:01.781Z,0.00
2018-12-10T06:41:01.712Z,0.00
2018-12-10T06:42:01.729Z,0.00
2018-12-10T06:43:01.652Z,0.00
2018-12-10T06:44:01.622Z,0.00
2018-12-10T06:45:01.561Z,0.00
2018-12-10T06:46:01.470Z,0.00
2018-12-10T06:47:01.425Z,0.00
2018-12-10T06:48:01.426Z,0.00
2018-12-10T06:49:01.283Z,0.00
2018-12-10T06:50:01.318Z,0.00
2018-12-10T06:51:01.343Z,0.00
2018-12-10T06:52:01.186Z,0.00
2018-12-10T06:53:01.088Z,0.00
2018-12-10T06:54:01.019Z,0.00
2018-12-10T06:55:01.653Z,0.00
2018-12-10T06:56:00.912Z,0.00
2018-12-10T06:57:00.860Z,0.00
2018-12-10T06:58:00.844Z,0.00
2018-12-10T06:59:00.750Z,0.00
2018-12-10T07:00:00.700Z,0.00
2018-12-10T07:01:00.643Z,0.00
2018-12-10T07:02:00.590Z,0.00
2018-12-10T07:03:00.541Z,0.00
2018-12-10T07:04:00.494Z,0.00
2018-12-10T07:05:00.433Z,0.00
2018-12-10T07:06:00.380Z,0.00
2018-12-10T07:07:00.325Z,0.00
2018-12-10T07:08:00.289Z,0.00
2018-12-10T07:09:00.225Z,0.00
2018-12-10T07:10:00.166Z,0.00
2018-12-10T07:11:00.132Z,0.00
2018-12-10T07:12:00.058Z,0.00
2018-12-10T07:13:00.034Z,0.00
2018-12-10T07:13:59.950Z,0.00
2018-12-10T07:15:00.538Z,0.00
2018-12-10T07:16:00.091Z,5.63
2018-12-10T07:16:59.890Z,5.63
2018-12-10T07:17:59.844Z,5.63
2018-12-10T07:18:59.704Z,5.63
2018-12-10T07:19:59.673Z,5.63
2018-12-10T07:20:59.700Z,5.63
2018-12-10T07:21:59.543Z,5.63
2018-12-10T07:22:59.537Z,5.63
2018-12-10T07:23:59.449Z,5.63
2018-12-10T07:24:59.455Z,5.63
2018-12-10T07:25:59.383Z,5.63
2018-12-10T07:26:59.285Z,5.63
2018-12-10T07:27:59.248Z,5.63
2018-12-10T07:28:59.206Z,5.63
2018-12-10T07:29:59.117Z,5.63
2018-12-10T07:30:59.068Z,5.63
2018-12-10T07:31:59.009Z,11.25
2018-12-10T07:32:58.954Z,11.25
2018-12-10T07:33:58.907Z,11.25
2018-12-10T07:34:58.923Z,11.25
2018-12-10T07:35:58.789Z,11.25
2018-12-10T07:36:58.735Z,16.88
2018-12-10T07:37:58.687Z,16.88
2018-12-10T07:38:58.625Z,16.88
2018-12-10T07:39:58.626Z,16.88
2018-12-10T07:40:58.536Z,16.88
2018-12-10T07:41:58.468Z,16.88
2018-12-10T07:42:58.434Z,16.88
2018-12-10T07:43:58.368Z,16.88
2018-12-10T07:44:58.401Z,16.88
2018-12-10T07:45:58.271Z,16.88
2018-12-10T07:46:58.203Z,16.88
2018-12-10T07:47:58.141Z,16.88
2018-12-10T07:48:58.098Z,16.88
2018-12-10T07:49:58.046Z,16.88
2018-12-10T07:50:57.988Z,16.88
2018-12-10T07:51:57.936Z,16.88
2018-12-10T07:52:57.891Z,16.88
2018-12-10T07:53:57.835Z,16.88
2018-12-10T07:54:57.778Z,16.88
2018-12-10T07:55:57.771Z,22.50
2018-12-10T07:56:57.674Z,22.50
2018-12-10T07:57:57.614Z,22.50
2018-12-10T07:58:57.571Z,22.50
2018-12-10T07:59:57.514Z,22.50
2018-12-10T08:00:57.458Z,22.50
2018-12-10T08:01:57.545Z,22.50
2018-12-10T08:02:57.353Z,22.50
2018-12-10T08:03:57.304Z,22.50
2018-12-10T08:04:57.238Z,22.50
2018-12-10T08:05:57.207Z,22.50
2018-12-10T08:06:57.137Z,22.50
2018-12-10T08:07:57.081Z,22.50
2018-12-10T08:08:57.035Z,22.50
2018-12-10T08:09:57.017Z,22.50
2018-12-10T08:10:56.945Z,22.50
2018-12-10T08:11:56.878Z,22.50
2018-12-10T08:12:56.819Z,22.50
2018-12-10T08:13:56.776Z,22.50
2018-12-10T08:14:56.752Z,22.50
2018-12-10T08:15:56.705Z,22.50
2018-12-10T08:16:56.619Z,22.50
2018-12-10T08:17:56.562Z,22.50
2018-12-10T08:18:56.506Z,22.50
2018-12-10T08:19:56.517Z,22.50
2018-12-10T08:21:02.335Z,16.88
2018-12-10T08:21:56.348Z,16.88
2018-12-10T08:22:56.315Z,16.88
2018-12-10T08:23:56.246Z,16.88
2018-12-10T08:24:56.183Z,16.88
2018-12-10T08:25:56.129Z,16.88
2018-12-10T08:26:56.083Z,16.88
2018-12-10T08:27:56.047Z,16.88
2018-12-10T08:29:55.925Z,16.88
2018-12-10T08:30:56.600Z,16.88
2018-12-10T08:31:56.006Z,16.88
2018-12-10T08:32:55.765Z,16.88
2018-12-10T08:33:55.710Z,16.88
2018-12-10T08:34:55.670Z,11.25
2018-12-10T08:35:41.932Z,16.88
2018-12-10T08:35:55.604Z,16.88
2018-12-10T08:36:55.763Z,22.50
2018-12-10T08:37:55.535Z,22.50
2018-12-10T08:38:55.455Z,22.50
2018-12-10T08:39:55.397Z,16.88
2018-12-10T08:40:56.420Z,22.50
2018-12-10T08:41:55.301Z,22.50
2018-12-10T08:42:55.251Z,22.50
2018-12-10T08:43:55.202Z,28.13
2018-12-10T08:44:55.137Z,28.13
2018-12-10T08:45:55.085Z,28.13
2018-12-10T08:46:55.039Z,33.75
2018-12-10T08:47:55.207Z,33.75
2018-12-10T08:48:54.972Z,33.75
2018-12-10T08:49:54.920Z,33.75
2018-12-10T08:50:55.545Z,28.13
2018-12-10T08:51:54.794Z,28.13
2018-12-10T08:52:54.758Z,28.13
2018-12-10T08:53:54.699Z,28.13
2018-12-10T08:54:54.637Z,28.13
2018-12-10T08:55:54.607Z,28.13
2018-12-10T08:56:54.511Z,28.13
2018-12-10T08:57:54.441Z,28.13
2018-12-10T08:58:55.145Z,28.13
2018-12-10T08:59:54.347Z,28.13
2018-12-10T09:00:54.299Z,28.13
2018-12-10T09:01:54.258Z,28.13
2018-12-10T09:02:54.200Z,28.13
2018-12-10T09:03:54.126Z,28.13
2018-12-10T09:04:54.083Z,28.13
2018-12-10T09:05:54.064Z,28.13
2018-12-10T09:06:54.018Z,33.75
2018-12-10T09:07:53.985Z,33.75
2018-12-10T09:08:53.864Z,39.38
2018-12-10T09:09:53.855Z,39.38
2018-12-10T09:10:54.833Z,39.38
2018-12-10T09:11:53.746Z,39.38
2018-12-10T09:12:53.686Z,39.38
2018-12-10T09:13:53.628Z,39.38
2018-12-10T09:14:53.596Z,33.75
2018-12-10T09:15:53.501Z,28.13
2018-12-10T09:16:53.523Z,28.13
2018-12-10T09:17:53.444Z,28.13
2018-12-10T09:18:53.344Z,28.13
2018-12-10T09:19:53.312Z,22.50
2018-12-10T09:20:53.306Z,22.50
2018-12-10T09:21:53.255Z,16.88
2018-12-10T09:22:53.115Z,16.88
2018-12-10T09:23:53.069Z,11.25
2018-12-10T09:24:53.046Z,11.25
2018-12-10T09:25:52.992Z,16.88
2018-12-10T09:26:52.937Z,22.50
2018-12-10T09:27:52.896Z,28.13
2018-12-10T09:28:52.826Z,28.13
2018-12-10T09:29:52.760Z,28.13
2018-12-10T09:30:52.747Z,28.13
2018-12-10T09:31:52.651Z,33.75
2018-12-10T09:32:52.608Z,33.75
2018-12-10T09:33:52.553Z,33.75
2018-12-10T09:34:52.500Z,33.75
2018-12-10T09:35:52.541Z,33.75
2018-12-10T09:36:52.381Z,28.13
2018-12-10T09:37:52.403Z,33.75
2018-12-10T09:38:52.295Z,39.38
2018-12-10T09:39:52.220Z,39.38
2018-12-10T09:40:52.188Z,33.75
2018-12-10T09:41:52.138Z,39.38
2018-12-10T09:42:52.095Z,56.25
2018-12-10T09:43:52.013Z,61.88
2018-12-10T09:44:52.040Z,56.25
2018-12-10T09:45:52.005Z,50.63
2018-12-10T09:46:58.846Z,39.38
2018-12-10T09:47:51.845Z,33.75
2018-12-10T09:48:51.890Z,28.13
2018-12-10T09:49:51.747Z,22.50
2018-12-10T09:50:51.646Z,28.13
2018-12-10T09:51:51.590Z,39.38
2018-12-10T09:52:51.533Z,33.75
2018-12-10T09:53:51.485Z,39.38
2018-12-10T09:54:51.431Z,39.38
2018-12-10T09:55:51.388Z,45.00
2018-12-10T09:56:51.349Z,45.00
2018-12-10T09:57:51.279Z,39.38
2018-12-10T09:58:51.252Z,39.38
2018-12-10T09:59:51.171Z,39.38
2018-12-10T10:00:51.124Z,39.38
2018-12-10T10:01:51.081Z,33.75
2018-12-10T10:02:51.704Z,33.75
2018-12-10T10:03:50.965Z,39.38
2018-12-10T10:04:50.919Z,39.38
2018-12-10T10:05:50.863Z,45.00
2018-12-10T10:06:50.812Z,50.63
2018-12-10T10:07:50.756Z,45.00
2018-12-10T10:08:50.705Z,50.63
2018-12-10T10:09:50.655Z,45.00
2018-12-10T10:10:50.602Z,39.38
2018-12-10T10:11:50.569Z,45.00
2018-12-10T10:12:50.539Z,56.25
2018-12-10T10:13:50.440Z,56.25
2018-12-10T10:14:50.391Z,67.50
2018-12-10T10:15:50.343Z,56.25
2018-12-10T10:16:50.276Z,67.50
2018-12-10T10:17:50.244Z,56.25
2018-12-10T10:18:50.179Z,39.38
2018-12-10T10:19:50.121Z,33.75
2018-12-10T10:20:50.072Z,39.38
2018-12-10T10:21:50.020Z,45.00
2018-12-10T10:22:49.970Z,45.00
2018-12-10T10:24:50.120Z,56.25
2018-12-10T10:25:50.177Z,56.25
2018-12-10T10:26:50.056Z,67.50
2018-12-10T10:27:50.078Z,56.25
2018-12-10T10:28:49.906Z,61.88
2018-12-10T10:29:49.893Z,73.13
2018-12-10T10:31:10.873Z,73.13
2018-12-10T10:31:49.738Z,61.88
2018-12-10T10:32:49.690Z,67.50
2018-12-10T10:33:49.625Z,67.50
2018-12-10T10:34:49.582Z,67.50
2018-12-10T10:35:49.524Z,78.75
2018-12-10T10:37:10.586Z,90.00
2018-12-10T10:37:49.515Z,101.25
2018-12-10T10:38:49.439Z,112.50
2018-12-10T10:39:49.625Z,118.13
2018-12-10T10:40:49.292Z,101.25
2018-12-10T10:41:49.235Z,95.63
2018-12-10T10:43:10.170Z,73.13
2018-12-10T10:43:50.045Z,67.50
2018-12-10T10:44:49.171Z,61.88
2018-12-10T10:45:49.136Z,50.63
2018-12-10T10:46:48.952Z,39.38
2018-12-10T10:47:51.753Z,28.13
2018-12-10T10:49:10.249Z,28.13
2018-12-10T10:49:49.224Z,28.13
2018-12-10T10:50:49.239Z,33.75
2018-12-10T10:51:49.366Z,39.38
2018-12-10T10:52:52.008Z,45.00
2018-12-10T10:53:49.078Z,56.25
2018-12-10T10:55:12.643Z,61.88
2018-12-10T10:55:48.661Z,61.88
2018-12-10T10:56:48.752Z,61.88
2018-12-10T10:57:48.841Z,61.88
2018-12-10T10:58:49.361Z,61.88
2018-12-10T10:59:48.534Z,67.50
2018-12-10T11:01:11.478Z,67.50
2018-12-10T11:01:48.356Z,61.88
2018-12-10T11:02:48.162Z,67.50
2018-12-10T11:03:48.278Z,67.50
2018-12-10T11:04:48.562Z,61.88
2018-12-10T11:05:48.335Z,61.88
2018-12-10T11:07:09.152Z,61.88
2018-12-10T11:07:48.301Z,61.88
2018-12-10T11:08:48.107Z,61.88
2018-12-10T11:09:48.012Z,56.25
2018-12-10T11:10:49.388Z,50.63
2018-12-10T11:11:47.904Z,45.00
2018-12-10T11:13:09.689Z,39.38
2018-12-10T11:13:47.657Z,39.38
2018-12-10T11:14:48.338Z,39.38
2018-12-10T11:15:47.681Z,33.75
2018-12-10T11:16:47.642Z,33.75
2018-12-10T11:17:47.389Z,28.13
2018-12-10T11:19:08.438Z,28.13
2018-12-10T11:19:47.647Z,28.13
2018-12-10T11:20:48.739Z,28.13
2018-12-10T11:21:47.323Z,33.75
2018-12-10T11:22:47.270Z,33.75
2018-12-10T11:23:47.508Z,33.75
2018-12-10T11:25:08.502Z,33.75
2018-12-10T11:25:49.804Z,33.75
2018-12-10T11:26:47.062Z,39.38
2018-12-10T11:27:54.336Z,45.00
2018-12-10T11:28:46.839Z,45.00
2018-12-10T11:29:48.463Z,45.00
2018-12-10T11:31:08.190Z,45.00
2018-12-10T11:31:47.663Z,45.00
2018-12-10T11:32:46.825Z,39.38
2018-12-10T11:33:47.641Z,39.38
2018-12-10T11:34:46.649Z,33.75
2018-12-10T11:35:47.529Z,28.13
2018-12-10T11:37:07.573Z,28.13
2018-12-10T11:37:46.579Z,28.13
2018-12-10T11:38:46.831Z,28.13
2018-12-10T11:39:48.953Z,22.50
2018-12-10T11:40:46.258Z,22.50
2018-12-10T11:41:46.636Z,22.50
2018-12-10T11:43:07.910Z,22.50
2018-12-10T11:43:46.062Z,22.50
2018-12-10T11:44:46.045Z,28.13
2018-12-10T11:45:46.040Z,28.13
2018-12-10T11:46:45.857Z,33.75
2018-12-10T11:47:46.367Z,33.75
2018-12-10T11:49:08.167Z,33.75
2018-12-10T11:49:46.039Z,39.38
2018-12-10T11:50:45.672Z,33.75
2018-12-10T11:51:45.695Z,33.75
2018-12-10T11:52:45.543Z,28.13
2018-12-10T11:53:47.408Z,33.75
2018-12-10T11:55:06.653Z,39.38
2018-12-10T11:55:45.652Z,39.38
2018-12-10T11:56:45.602Z,39.38
2018-12-10T11:57:45.577Z,45.00
2018-12-10T11:58:45.332Z,45.00
2018-12-10T11:59:45.950Z,50.63
2018-12-10T12:01:06.106Z,56.25
2018-12-10T12:01:45.169Z,56.25
2018-12-10T12:02:45.072Z,56.25
2018-12-10T12:03:45.007Z,61.88
2018-12-10T12:04:45.279Z,67.50
2018-12-10T12:05:44.876Z,73.13
2018-12-10T12:07:05.879Z,73.13
2018-12-10T12:07:44.784Z,73.13
2018-12-10T12:08:44.823Z,67.50
2018-12-10T12:09:44.704Z,61.88
2018-12-10T12:10:44.720Z,56.25
2018-12-10T12:11:44.586Z,50.63
2018-12-10T12:13:05.602Z,50.63
2018-12-10T12:13:44.637Z,50.63
2018-12-10T12:14:44.397Z,67.50
2018-12-10T12:15:44.372Z,73.13
2018-12-10T12:16:44.326Z,78.75
2018-12-10T12:17:44.253Z,73.13
2018-12-10T12:19:11.299Z,73.13
2018-12-10T12:19:44.317Z,67.50
2018-12-10T12:20:44.098Z,56.25
2018-12-10T12:21:45.748Z,45.00
2018-12-10T12:22:44.587Z,39.38
2018-12-10T12:23:43.935Z,33.75
2018-12-10T12:25:04.884Z,39.38
2018-12-10T12:25:43.841Z,45.00
2018-12-10T12:26:45.544Z,50.63
2018-12-10T12:27:43.826Z,45.00
2018-12-10T12:28:43.663Z,50.63
2018-12-10T12:29:43.694Z,56.25
2018-12-10T12:31:04.570Z,56.25
2018-12-10T12:31:43.547Z,56.25
2018-12-10T12:32:43.601Z,50.63
2018-12-10T12:33:43.574Z,56.25
2018-12-10T12:34:43.438Z,56.25
2018-12-10T12:35:43.298Z,61.88
2018-12-10T12:37:04.296Z,61.88
2018-12-10T12:37:43.255Z,61.88
2018-12-10T12:38:43.247Z,56.25
2018-12-10T12:39:43.086Z,56.25
2018-12-10T12:40:43.124Z,56.25
2018-12-10T12:41:43.030Z,61.88
2018-12-10T12:43:07.039Z,56.25
2018-12-10T12:43:42.912Z,56.25
2018-12-10T12:44:42.887Z,56.25
2018-12-10T12:45:42.890Z,56.25
2018-12-10T12:46:42.830Z,50.63
2018-12-10T12:47:42.808Z,50.63
2018-12-10T12:49:03.763Z,50.63
2018-12-10T12:49:42.738Z,45.00
2018-12-10T12:50:42.691Z,45.00
2018-12-10T12:51:42.498Z,39.38
2018-12-10T12:52:42.689Z,39.38
2018-12-10T12:53:42.384Z,39.38
2018-12-10T12:55:03.318Z,45.00
2018-12-10T12:55:42.239Z,50.63
2018-12-10T12:56:42.189Z,50.63
2018-12-10T12:57:42.148Z,50.63
2018-12-10T12:58:42.101Z,50.63
2018-12-10T12:59:42.246Z,50.63
2018-12-10T13:01:03.058Z,45.00
2018-12-10T13:01:48.978Z,39.38
2018-12-10T13:02:41.952Z,33.75
2018-12-10T13:03:41.814Z,33.75
2018-12-10T13:04:41.762Z,28.13
2018-12-10T13:05:41.870Z,28.13
2018-12-10T13:07:02.701Z,28.13
2018-12-10T13:07:41.576Z,28.13